createdAt,value
2022-07-29T00:00:30.807Z,101411.94
2022-07-29T00:02:33.293Z,101409.72
2022-07-29T00:04:36.813Z,101412.94
2022-07-29T00:06:38.875Z,101410.41
2022-07-29T00:08:40.870Z,101414.47
2022-07-29T00:10:43.428Z,101412.59
2022-07-29T00:12:45.427Z,101416.06
2022-07-29T00:14:47.425Z,101409.56
2022-07-29T00:16:50.255Z,101413.84
2022-07-29T00:18:52.337Z,101420.25
2022-07-29T00:20:54.546Z,101419.09
2022-07-29T00:22:56.558Z,101423.97
2022-07-29T00:24:58.573Z,101424.38
2022-07-29T00:27:00.546Z,101416.84
2022-07-29T00:29:32.424Z,101427.19
2022-07-29T00:31:26.409Z,101423.25
2022-07-29T00:33:29.604Z,101426.22
2022-07-29T00:35:46.722Z,101428.69
2022-07-29T00:37:48.724Z,101433.91
2022-07-29T00:39:50.813Z,101419.03
2022-07-29T00:41:52.861Z,101428.56
2022-07-29T00:43:55.312Z,101432.63
2022-07-29T00:45:57.363Z,101430.72
2022-07-29T00:47:59.353Z,101430.13
2022-07-29T00:50:01.355Z,101425.56
2022-07-29T00:52:04.887Z,101428.13
2022-07-29T00:54:08.621Z,101426.00
2022-07-29T00:56:10.923Z,101425.22
2022-07-29T00:58:14.879Z,101425.09
2022-07-29T01:00:24.699Z,101440.50
2022-07-29T01:02:26.877Z,101427.59
2022-07-29T01:04:30.728Z,101425.00
2022-07-29T01:06:32.761Z,101423.03
2022-07-29T01:08:34.801Z,101425.59
2022-07-29T01:10:37.667Z,101435.09
2022-07-29T01:12:39.649Z,101424.25
2022-07-29T01:14:41.628Z,101433.31
2022-07-29T01:17:09.391Z,101426.13
2022-07-29T01:19:42.511Z,101417.53
2022-07-29T01:21:48.205Z,101425.78
2022-07-29T01:24:46.700Z,101423.66
2022-07-29T01:26:55.628Z,101433.06
2022-07-29T01:29:16.994Z,101426.31
2022-07-29T01:31:27.015Z,101428.03
2022-07-29T01:33:50.099Z,101427.34
2022-07-29T01:35:52.085Z,101425.16
2022-07-29T01:38:02.163Z,101427.28
2022-07-29T01:40:05.338Z,101425.38
2022-07-29T01:42:14.048Z,101428.97
2022-07-29T01:44:32.168Z,101428.97
2022-07-29T01:46:38.258Z,101426.25
2022-07-29T01:48:50.098Z,101428.22
2022-07-29T01:51:00.129Z,101426.47
2022-07-29T01:53:06.243Z,101420.38
2022-07-29T01:55:13.099Z,101423.66
2022-07-29T01:57:18.404Z,101418.78
2022-07-29T01:59:20.415Z,101425.13
2022-07-29T02:01:23.126Z,101415.63
2022-07-29T02:03:25.136Z,101409.22
2022-07-29T02:05:27.253Z,101416.53
2022-07-29T02:07:30.552Z,101399.16
2022-07-29T02:09:34.506Z,101406.38
2022-07-29T02:11:36.552Z,101397.72
2022-07-29T02:13:38.559Z,101403.97
2022-07-29T02:15:40.600Z,101398.75
2022-07-29T02:17:49.978Z,101403.97
2022-07-29T02:19:52.827Z,101402.50
2022-07-29T02:21:55.109Z,101402.53
2022-07-29T02:23:58.229Z,101398.81
2022-07-29T02:26:00.284Z,101407.16
2022-07-29T02:28:02.602Z,101399.97
2022-07-29T02:30:05.393Z,101401.59
2022-07-29T02:32:07.350Z,101403.88
2022-07-29T02:34:10.542Z,101406.53
2022-07-29T02:36:12.551Z,101409.81
2022-07-29T02:38:36.766Z,101402.38
2022-07-29T02:40:39.864Z,101412.38
2022-07-29T02:42:43.649Z,101405.19
2022-07-29T02:44:45.657Z,101413.53
2022-07-29T02:47:12.387Z,101404.38
2022-07-29T02:49:22.103Z,101401.25
2022-07-29T02:51:43.928Z,101400.78
2022-07-29T02:53:50.327Z,101402.59
2022-07-29T02:55:52.196Z,101407.16
2022-07-29T02:58:33.518Z,101391.91
2022-07-29T03:00:38.141Z,101399.66
2022-07-29T03:02:46.614Z,101394.44
2022-07-29T03:04:50.256Z,101399.66
2022-07-29T03:06:52.355Z,101390.53
2022-07-29T03:08:54.411Z,101402.16
2022-07-29T03:10:56.397Z,101407.72
2022-07-29T03:12:59.174Z,101399.03
2022-07-29T03:15:01.301Z,101397.56
2022-07-29T03:17:03.282Z,101396.94
2022-07-29T03:19:05.307Z,101390.38
2022-07-29T03:21:07.310Z,101407.91
2022-07-29T03:23:09.552Z,101401.50
2022-07-29T03:25:12.663Z,101400.22
2022-07-29T03:27:14.632Z,101410.69
2022-07-29T03:29:16.610Z,101408.75
2022-07-29T03:31:22.038Z,101402.50
2022-07-29T03:33:24.115Z,101413.00
2022-07-29T03:35:26.157Z,101414.13
2022-07-29T03:37:28.345Z,101415.63
2022-07-29T03:39:34.296Z,101402.19
2022-07-29T03:41:38.027Z,101402.19
2022-07-29T03:43:49.278Z,101408.75
2022-07-29T03:45:54.575Z,101405.28
2022-07-29T03:48:01.155Z,101410.34
2022-07-29T03:50:12.802Z,101399.22
2022-07-29T03:52:14.955Z,101394.47
2022-07-29T03:54:17.275Z,101399.38
2022-07-29T03:56:20.548Z,101400.00
2022-07-29T03:58:22.572Z,101396.72
2022-07-29T04:00:25.631Z,101396.09
2022-07-29T04:02:30.721Z,101409.03
2022-07-29T04:04:36.300Z,101402.44
2022-07-29T04:06:46.474Z,101413.75
2022-07-29T04:08:50.452Z,101413.41
2022-07-29T04:10:53.510Z,101396.69
2022-07-29T04:12:55.505Z,101400.78
2022-07-29T04:14:57.476Z,101396.81
2022-07-29T04:16:59.923Z,101406.97
2022-07-29T04:19:01.950Z,101400.94
2022-07-29T04:21:05.075Z,101404.31
2022-07-29T04:23:07.084Z,101404.78
2022-07-29T04:25:09.590Z,101416.09
2022-07-29T04:27:11.593Z,101417.53
2022-07-29T04:29:15.249Z,101412.91
2022-07-29T04:31:19.354Z,101413.38
2022-07-29T04:33:24.932Z,101410.25
2022-07-29T04:35:27.336Z,101413.88
2022-07-29T04:37:29.310Z,101406.66
2022-07-29T04:39:31.395Z,101410.13
2022-07-29T04:41:33.845Z,101412.38
2022-07-29T04:43:37.137Z,101412.50
2022-07-29T04:45:39.149Z,101414.13
2022-07-29T04:47:41.232Z,101418.84
2022-07-29T04:49:43.246Z,101415.84
2022-07-29T04:51:45.258Z,101421.22
2022-07-29T04:53:47.248Z,101422.31
2022-07-29T04:55:49.525Z,101424.75
2022-07-29T04:57:51.522Z,101420.94
2022-07-29T04:59:53.517Z,101428.63
2022-07-29T05:01:55.614Z,101427.94
2022-07-29T05:04:00.488Z,101424.47
2022-07-29T05:06:02.885Z,101419.38
2022-07-29T05:08:05.274Z,101426.56
2022-07-29T05:10:07.671Z,101416.84
2022-07-29T05:12:10.751Z,101421.53
2022-07-29T05:14:12.842Z,101428.69
2022-07-29T05:16:15.374Z,101431.25
2022-07-29T05:18:17.462Z,101431.50
2022-07-29T05:20:19.845Z,101429.69
2022-07-29T05:22:21.980Z,101430.59
2022-07-29T05:24:24.019Z,101434.34
2022-07-29T05:26:26.030Z,101430.72
2022-07-29T05:28:28.014Z,101437.63
2022-07-29T05:30:30.026Z,101437.16
2022-07-29T05:32:32.847Z,101431.00
2022-07-29T05:34:34.912Z,101433.59
2022-07-29T05:36:36.902Z,101435.00
2022-07-29T05:38:39.028Z,101437.09
2022-07-29T05:40:40.998Z,101435.25
2022-07-29T05:42:43.115Z,101431.97
2022-07-29T05:44:45.116Z,101434.19
2022-07-29T05:46:47.238Z,101426.38
2022-07-29T05:48:51.620Z,101429.66
2022-07-29T05:50:53.687Z,101427.00
2022-07-29T05:52:55.696Z,101422.81
2022-07-29T05:54:57.859Z,101424.31
2022-07-29T05:56:59.852Z,101430.16
2022-07-29T05:59:01.933Z,101428.28
2022-07-29T06:01:04.387Z,101424.69
2022-07-29T06:03:06.569Z,101428.28
2022-07-29T06:05:12.870Z,101432.47
2022-07-29T06:07:19.376Z,101428.06
2022-07-29T06:09:21.370Z,101428.25
2022-07-29T06:11:23.374Z,101428.84
2022-07-29T06:13:25.354Z,101430.25
2022-07-29T06:15:27.370Z,101423.22
2022-07-29T06:17:29.344Z,101422.75
2022-07-29T06:19:32.027Z,101416.69
2022-07-29T06:21:34.715Z,101419.72
2022-07-29T06:23:40.714Z,101416.06
2022-07-29T06:25:42.770Z,101422.34
2022-07-29T06:27:44.846Z,101424.69
2022-07-29T06:29:46.823Z,101421.44
2022-07-29T06:31:48.815Z,101415.41
2022-07-29T06:33:50.827Z,101417.28
2022-07-29T06:35:54.926Z,101414.19
2022-07-29T06:37:59.608Z,101420.72
2022-07-29T06:40:20.559Z,101414.66
2022-07-29T06:42:22.604Z,101409.31
2022-07-29T06:44:25.750Z,101419.09
2022-07-29T06:46:28.663Z,101411.59
2022-07-29T06:48:30.782Z,101419.91
2022-07-29T06:50:32.811Z,101417.22
2022-07-29T06:52:34.791Z,101421.09
2022-07-29T06:54:36.833Z,101421.56
2022-07-29T06:56:40.406Z,101421.38
2022-07-29T06:58:42.468Z,101419.69
2022-07-29T07:00:46.064Z,101420.31
2022-07-29T07:02:48.132Z,101418.41
2022-07-29T07:04:50.247Z,101424.56
2022-07-29T07:06:52.314Z,101425.34
2022-07-29T07:08:54.308Z,101415.06
2022-07-29T07:10:57.348Z,101421.28
2022-07-29T07:12:59.419Z,101412.66
2022-07-29T07:15:01.418Z,101416.69
2022-07-29T07:17:04.979Z,101406.47
2022-07-29T07:19:07.043Z,101409.97
2022-07-29T07:21:09.218Z,101407.41
2022-07-29T07:23:11.665Z,101404.03
2022-07-29T07:25:13.775Z,101401.91
2022-07-29T07:27:15.786Z,101405.13
2022-07-29T07:29:17.932Z,101404.13
2022-07-29T07:31:20.005Z,101409.16
2022-07-29T07:33:22.142Z,101408.13
2022-07-29T07:35:24.196Z,101411.53
2022-07-29T07:37:26.569Z,101408.22
2022-07-29T07:39:28.559Z,101399.84
2022-07-29T07:41:32.501Z,101412.53
2022-07-29T07:43:35.031Z,101406.38
2022-07-29T07:45:38.488Z,101403.75
2022-07-29T07:47:40.886Z,101396.31
2022-07-29T07:49:42.856Z,101402.13
2022-07-29T07:51:50.609Z,101403.53
2022-07-29T07:53:53.204Z,101404.91
2022-07-29T07:56:12.367Z,101404.56
2022-07-29T07:58:14.958Z,101396.66
2022-07-29T08:00:17.511Z,101393.59
2022-07-29T08:02:19.567Z,101401.81
2022-07-29T08:04:26.870Z,101402.34
2022-07-29T08:06:29.945Z,101407.69
2022-07-29T08:08:31.982Z,101396.16
2022-07-29T08:10:52.807Z,101401.09
2022-07-29T08:12:54.830Z,101402.81
2022-07-29T08:14:56.817Z,101405.41
2022-07-29T08:16:58.994Z,101402.72
2022-07-29T08:19:00.998Z,101398.00
2022-07-29T08:21:03.017Z,101405.00
2022-07-29T08:23:05.749Z,101399.09
2022-07-29T08:25:08.211Z,101405.72
2022-07-29T08:27:33.342Z,101395.03
2022-07-29T08:29:33.803Z,101401.63
2022-07-29T08:31:41.633Z,101388.41
2022-07-29T08:33:44.101Z,101398.56
2022-07-29T08:35:46.675Z,101389.78
2022-07-29T08:37:48.772Z,101388.28
2022-07-29T08:39:50.856Z,101396.84
2022-07-29T08:41:57.336Z,101402.88
2022-07-29T08:43:59.777Z,101402.97
2022-07-29T08:46:01.956Z,101399.44
2022-07-29T08:48:04.322Z,101399.44
2022-07-29T08:50:07.968Z,101394.63
2022-07-29T08:52:12.458Z,101397.09
2022-07-29T08:54:17.912Z,101385.06
2022-07-29T08:56:20.816Z,101389.53
2022-07-29T08:58:24.705Z,101399.25
2022-07-29T09:00:27.438Z,101397.66
2022-07-29T09:02:32.817Z,101389.59
2022-07-29T09:04:35.518Z,101393.66
2022-07-29T09:06:40.510Z,101386.44
2022-07-29T09:08:42.503Z,101381.19
2022-07-29T09:10:45.802Z,101384.81
2022-07-29T09:12:47.947Z,101380.34
2022-07-29T09:14:49.940Z,101388.41
2022-07-29T09:16:54.922Z,101384.78
2022-07-29T09:18:56.975Z,101384.78
2022-07-29T09:21:17.501Z,101387.56
2022-07-29T09:23:22.843Z,101393.56
2022-07-29T09:25:41.159Z,101393.53
2022-07-29T09:27:44.037Z,101386.59
2022-07-29T09:29:46.064Z,101383.31
2022-07-29T09:31:50.717Z,101374.75
2022-07-29T09:33:52.711Z,101382.75
2022-07-29T09:36:09.013Z,101376.53
2022-07-29T09:38:14.266Z,101377.59
2022-07-29T09:40:20.818Z,101382.44
2022-07-29T09:42:30.185Z,101386.97
2022-07-29T09:44:47.751Z,101381.78
2022-07-29T09:47:08.135Z,101370.31
2022-07-29T09:49:15.209Z,101380.03
2022-07-29T09:51:25.448Z,101367.91
2022-07-29T09:53:38.752Z,101363.19
2022-07-29T09:55:53.148Z,101374.66
2022-07-29T09:57:55.455Z,101375.00
2022-07-29T10:00:01.802Z,101376.28
2022-07-29T10:02:12.815Z,101365.72
2022-07-29T10:04:14.825Z,101359.25
2022-07-29T10:06:16.899Z,101360.59
2022-07-29T10:08:26.171Z,101371.59
2022-07-29T10:10:33.048Z,101366.75
2022-07-29T10:12:35.030Z,101364.28
2022-07-29T10:14:37.359Z,101356.56
2022-07-29T10:16:39.434Z,101363.41
2022-07-29T10:18:42.840Z,101347.09
2022-07-29T10:20:44.903Z,101363.72
2022-07-29T10:22:53.527Z,101366.16
2022-07-29T10:24:55.860Z,101364.97
2022-07-29T10:26:59.312Z,101365.72
2022-07-29T10:29:02.015Z,101368.59
2022-07-29T10:31:08.204Z,101364.09
2022-07-29T10:33:23.842Z,101358.81
2022-07-29T10:36:04.656Z,101361.66
2022-07-29T10:38:48.862Z,101363.06
2022-07-29T10:41:24.344Z,101357.09
2022-07-29T10:43:33.876Z,101361.59
2022-07-29T10:45:35.867Z,101370.09
2022-07-29T10:47:37.952Z,101361.19
2022-07-29T10:49:41.102Z,101363.16
2022-07-29T10:52:02.761Z,101360.66
2022-07-29T10:54:06.701Z,101361.06
2022-07-29T10:56:30.054Z,101370.44
2022-07-29T10:58:32.051Z,101362.00
2022-07-29T11:00:34.212Z,101361.66
2022-07-29T11:02:41.893Z,101358.00
2022-07-29T11:04:47.285Z,101359.94
2022-07-29T11:07:10.189Z,101361.59
2022-07-29T11:09:25.538Z,101344.19
2022-07-29T11:11:37.967Z,101347.78
2022-07-29T11:16:10.497Z,101353.88
2022-07-29T11:18:17.434Z,101354.38
2022-07-29T11:20:49.900Z,101348.34
2022-07-29T11:22:51.997Z,101347.94
2022-07-29T11:25:17.568Z,101357.25
2022-07-29T11:27:23.298Z,101359.31
2022-07-29T11:29:30.381Z,101360.53
2022-07-29T11:31:37.661Z,101355.63
2022-07-29T11:33:56.530Z,101358.91
2022-07-29T11:36:28.643Z,101359.72
2022-07-29T11:38:32.148Z,101351.22
2022-07-29T11:40:34.408Z,101351.63
2022-07-29T11:45:43.256Z,101344.31
2022-07-29T11:47:40.177Z,101343.91
2022-07-29T11:49:42.365Z,101342.69
2022-07-29T11:51:58.365Z,101344.69
2022-07-29T11:54:04.360Z,101352.75
2022-07-29T11:56:09.744Z,101347.88
2022-07-29T11:58:13.212Z,101342.16
2022-07-29T12:00:43.692Z,101343.38
2022-07-29T12:05:10.662Z,101348.59
2022-07-29T12:07:01.821Z,101356.03
2022-07-29T12:07:02.499Z,101346.59
2022-07-29T12:07:15.656Z,101339.16
2022-07-29T12:09:19.030Z,101345.25
2022-07-29T12:11:23.571Z,101340.00
2022-07-29T12:13:37.146Z,101341.59
2022-07-29T12:15:47.232Z,101342.34
2022-07-29T12:17:49.615Z,101338.31
2022-07-29T12:19:51.609Z,101335.88
2022-07-29T12:21:59.447Z,101333.31
2022-07-29T12:24:09.006Z,101332.75
2022-07-29T12:26:25.333Z,101331.81
2022-07-29T12:28:28.191Z,101322.53
2022-07-29T12:30:47.095Z,101309.56
2022-07-29T12:32:49.725Z,101316.03
2022-07-29T12:34:52.013Z,101318.78
2022-07-29T12:36:54.015Z,101312.41
2022-07-29T12:38:56.036Z,101312.47
2022-07-29T12:40:58.723Z,101310.34
2022-07-29T12:43:17.113Z,101316.03
2022-07-29T12:45:19.104Z,101309.06
2022-07-29T12:47:21.214Z,101308.97
2022-07-29T12:49:24.091Z,101309.16
2022-07-29T12:51:40.124Z,101315.19
2022-07-29T12:53:42.236Z,101315.41
2022-07-29T12:55:52.419Z,101313.25
2022-07-29T12:57:54.533Z,101310.94
2022-07-29T13:00:12.043Z,101317.47
2022-07-29T13:02:23.781Z,101310.75
2022-07-29T13:04:30.577Z,101310.56
2022-07-29T13:07:04.781Z,101307.53
2022-07-29T13:09:17.963Z,101300.56
2022-07-29T13:11:49.280Z,101301.09
2022-07-29T13:14:05.617Z,101313.94
2022-07-29T13:16:09.319Z,101289.41
2022-07-29T13:18:33.966Z,101296.16
2022-07-29T13:20:36.371Z,101295.63
2022-07-29T13:22:38.384Z,101296.09
2022-07-29T13:24:53.638Z,101280.84
2022-07-29T13:26:55.620Z,101283.63
2022-07-29T13:28:57.641Z,101275.50
2022-07-29T13:30:59.691Z,101275.59
2022-07-29T13:33:01.731Z,101275.63
2022-07-29T13:35:06.890Z,101269.97
2022-07-29T13:37:08.894Z,101273.19
2022-07-29T13:39:12.350Z,101267.88
2022-07-29T13:41:14.399Z,101274.38
2022-07-29T13:43:16.484Z,101276.94
2022-07-29T13:45:18.600Z,101262.91
2022-07-29T13:47:21.296Z,101261.16
2022-07-29T13:49:23.767Z,101268.03
2022-07-29T13:51:25.813Z,101257.44
2022-07-29T13:53:28.939Z,101257.22
2022-07-29T13:55:30.983Z,101252.06
2022-07-29T13:57:33.001Z,101247.72
2022-07-29T13:59:35.254Z,101245.91
2022-07-29T14:01:37.464Z,101237.44
2022-07-29T14:03:45.661Z,101233.34
2022-07-29T14:05:47.929Z,101241.78
2022-07-29T14:07:50.271Z,101242.75
2022-07-29T14:09:52.339Z,101239.84
2022-07-29T14:11:54.458Z,101243.78
2022-07-29T14:13:56.459Z,101244.81
2022-07-29T14:15:58.984Z,101236.13
2022-07-29T14:18:01.078Z,101229.88
2022-07-29T14:20:03.175Z,101232.72
2022-07-29T14:22:05.980Z,101229.25
2022-07-29T14:24:18.069Z,101234.88
2022-07-29T14:26:24.222Z,101238.25
2022-07-29T14:28:26.520Z,101235.97
2022-07-29T14:30:28.438Z,101226.06
2022-07-29T14:32:30.503Z,101227.47
2022-07-29T14:34:32.422Z,101224.19
2022-07-29T14:36:34.444Z,101214.75
2022-07-29T14:38:38.334Z,101221.47
2022-07-29T14:40:40.409Z,101222.91
2022-07-29T14:42:42.329Z,101219.28
2022-07-29T14:44:44.666Z,101217.94
2022-07-29T14:46:46.823Z,101217.97
2022-07-29T14:48:51.564Z,101213.00
2022-07-29T14:50:53.566Z,101212.03
2022-07-29T14:52:55.643Z,101204.38
2022-07-29T14:54:57.689Z,101211.41
2022-07-29T14:56:59.859Z,101212.41
2022-07-29T14:59:01.947Z,101204.91
2022-07-29T15:01:03.982Z,101206.72
2022-07-29T15:03:11.239Z,101197.75
2022-07-29T15:05:13.616Z,101194.72
2022-07-29T15:07:16.751Z,101192.03
2022-07-29T15:09:19.089Z,101194.63
2022-07-29T15:11:21.067Z,101185.50
2022-07-29T15:13:23.065Z,101185.47
2022-07-29T15:15:25.266Z,101191.72
2022-07-29T15:17:27.267Z,101191.00
2022-07-29T15:19:29.287Z,101176.25
2022-07-29T15:21:31.327Z,101191.75
2022-07-29T15:23:33.977Z,101180.28
2022-07-29T15:25:37.322Z,101181.63
2022-07-29T15:27:39.302Z,101181.63
2022-07-29T15:29:45.091Z,101181.75
2022-07-29T15:31:47.155Z,101180.84
2022-07-29T15:33:49.222Z,101171.81
2022-07-29T15:35:51.220Z,101172.84
2022-07-29T15:37:53.215Z,101171.06
2022-07-29T15:39:59.908Z,101169.66
2022-07-29T15:42:02.193Z,101175.81
2022-07-29T15:44:04.435Z,101165.50
2022-07-29T15:46:24.925Z,101165.63
2022-07-29T15:48:27.031Z,101172.16
2022-07-29T15:50:29.018Z,101178.84
2022-07-29T15:52:31.026Z,101169.19
2022-07-29T15:54:34.210Z,101168.38
2022-07-29T15:56:36.226Z,101156.72
2022-07-29T15:58:38.215Z,101157.50
2022-07-29T16:00:41.040Z,101160.81
2022-07-29T16:02:43.073Z,101156.72
2022-07-29T16:04:45.127Z,101161.09
2022-07-29T16:06:47.608Z,101153.91
2022-07-29T16:08:49.612Z,101164.94
2022-07-29T16:10:51.580Z,101151.38
2022-07-29T16:12:53.571Z,101154.72
2022-07-29T16:14:55.638Z,101153.69
2022-07-29T16:16:58.216Z,101150.44
2022-07-29T16:19:00.369Z,101157.63
2022-07-29T16:21:02.359Z,101160.47
2022-07-29T16:23:04.346Z,101149.97
2022-07-29T16:25:07.009Z,101150.06
2022-07-29T16:27:09.108Z,101154.09
2022-07-29T16:29:11.100Z,101158.19
2022-07-29T16:31:13.840Z,101160.59
2022-07-29T16:33:15.851Z,101157.59
2022-07-29T16:35:17.860Z,101163.44
2022-07-29T16:37:19.866Z,101154.16
2022-07-29T16:39:21.873Z,101151.28
2022-07-29T16:41:23.958Z,101145.06
2022-07-29T16:43:26.005Z,101149.66
2022-07-29T16:45:31.518Z,101154.34
2022-07-29T16:47:45.977Z,101154.00
2022-07-29T16:49:47.959Z,101145.00
2022-07-29T16:51:49.988Z,101156.56
2022-07-29T16:53:52.011Z,101156.06
2022-07-29T16:55:53.996Z,101158.97
2022-07-29T16:57:56.074Z,101148.97
2022-07-29T16:59:58.075Z,101156.84
2022-07-29T17:02:02.642Z,101153.31
2022-07-29T17:04:07.786Z,101149.81
2022-07-29T17:06:09.784Z,101154.06
2022-07-29T17:08:12.240Z,101142.78
2022-07-29T17:10:14.170Z,101146.59
2022-07-29T17:12:16.180Z,101148.66
2022-07-29T17:14:18.321Z,101145.13
2022-07-29T17:16:26.944Z,101147.53
2022-07-29T17:18:30.801Z,101146.16
2022-07-29T17:20:33.233Z,101143.44
2022-07-29T17:22:35.390Z,101142.19
2022-07-29T17:24:38.173Z,101141.91
2022-07-29T17:26:43.278Z,101147.69
2022-07-29T17:28:45.694Z,101149.44
2022-07-29T17:30:47.766Z,101146.84
2022-07-29T17:32:52.357Z,101149.31
2022-07-29T17:34:54.478Z,101144.38
2022-07-29T17:36:56.926Z,101152.50
2022-07-29T17:39:07.343Z,101148.66
2022-07-29T17:41:09.835Z,101149.59
2022-07-29T17:43:11.890Z,101148.88
2022-07-29T17:45:13.903Z,101147.28
2022-07-29T17:47:16.693Z,101155.38
2022-07-29T17:49:18.904Z,101152.94
2022-07-29T17:51:20.919Z,101155.47
2022-07-29T17:53:23.125Z,101152.69
2022-07-29T17:55:25.231Z,101143.91
2022-07-29T17:57:27.248Z,101146.75
2022-07-29T17:59:29.278Z,101153.25
2022-07-29T18:01:31.298Z,101143.97
2022-07-29T18:03:33.373Z,101151.25
2022-07-29T18:05:35.438Z,101141.22
2022-07-29T18:07:37.455Z,101146.91
2022-07-29T18:09:39.462Z,101151.44
2022-07-29T18:11:44.363Z,101154.34
2022-07-29T18:13:47.752Z,101151.50
2022-07-29T18:15:49.805Z,101150.31
2022-07-29T18:17:57.631Z,101151.16
2022-07-29T18:20:00.213Z,101144.72
2022-07-29T18:22:05.116Z,101152.44
2022-07-29T18:24:08.369Z,101154.88
2022-07-29T18:26:10.448Z,101149.59
2022-07-29T18:28:12.504Z,101157.72
2022-07-29T18:30:17.368Z,101156.13
2022-07-29T18:32:19.587Z,101159.75
2022-07-29T18:34:31.194Z,101157.75
2022-07-29T18:36:33.237Z,101152.91
2022-07-29T18:38:35.364Z,101152.53
2022-07-29T18:40:40.078Z,101159.38
2022-07-29T18:42:42.115Z,101164.25
2022-07-29T18:44:49.201Z,101158.53
2022-07-29T18:46:52.386Z,101154.09
2022-07-29T18:48:54.560Z,101163.34
2022-07-29T18:50:57.478Z,101167.38
2022-07-29T18:53:01.259Z,101166.56
2022-07-29T18:55:03.476Z,101170.59
2022-07-29T18:57:54.671Z,101168.53
2022-07-29T18:59:27.566Z,101170.94
2022-07-29T19:01:31.672Z,101171.34
2022-07-29T19:03:34.217Z,101170.13
2022-07-29T19:05:36.197Z,101174.09
2022-07-29T19:07:38.591Z,101174.84
2022-07-29T19:09:43.674Z,101169.56
2022-07-29T19:11:55.575Z,101175.19
2022-07-29T19:13:58.756Z,101174.72
2022-07-29T19:16:00.861Z,101179.13
2022-07-29T19:18:02.991Z,101179.53
2022-07-29T19:20:06.304Z,101173.44
2022-07-29T19:22:09.433Z,101176.22
2022-07-29T19:24:15.423Z,101180.94
2022-07-29T19:26:20.553Z,101188.97
2022-07-29T19:28:23.104Z,101189.69
2022-07-29T19:30:25.098Z,101188.78
2022-07-29T19:32:27.242Z,101194.34
2022-07-29T19:34:29.339Z,101197.47
2022-07-29T19:36:31.475Z,101196.25
2022-07-29T19:38:33.490Z,101188.56
2022-07-29T19:40:35.514Z,101190.16
2022-07-29T19:42:37.583Z,101186.41
2022-07-29T19:44:39.568Z,101188.75
2022-07-29T19:46:41.771Z,101202.88
2022-07-29T19:48:44.628Z,101197.56
2022-07-29T19:50:46.730Z,101204.75
2022-07-29T19:52:48.883Z,101202.72
2022-07-29T19:54:50.944Z,101206.22
2022-07-29T19:56:52.962Z,101206.13
2022-07-29T19:58:55.036Z,101206.94
2022-07-29T20:00:57.061Z,101206.44
2022-07-29T20:02:59.072Z,101197.94
2022-07-29T20:05:01.094Z,101209.16
2022-07-29T20:07:03.534Z,101206.78
2022-07-29T20:09:06.283Z,101202.66
2022-07-29T20:11:08.324Z,101212.25
2022-07-29T20:13:10.357Z,101221.63
2022-07-29T20:15:16.358Z,101211.91
2022-07-29T20:17:24.787Z,101215.19
2022-07-29T20:19:27.063Z,101217.19
2022-07-29T20:21:29.078Z,101219.16
2022-07-29T20:23:33.224Z,101227.59
2022-07-29T20:25:35.529Z,101233.63
2022-07-29T20:27:40.414Z,101223.16
2022-07-29T20:29:42.531Z,101224.59
2022-07-29T20:31:45.680Z,101221.78
2022-07-29T20:33:55.629Z,101221.25
2022-07-29T20:35:57.624Z,101215.88
2022-07-29T20:38:00.480Z,101222.31
2022-07-29T20:40:03.426Z,101224.63
2022-07-29T20:42:05.985Z,101223.00
2022-07-29T20:44:08.092Z,101225.06
2022-07-29T20:46:10.234Z,101218.97
2022-07-29T20:48:13.619Z,101215.63
2022-07-29T20:50:15.700Z,101215.84
2022-07-29T20:52:21.710Z,101217.06
2022-07-29T20:54:23.769Z,101210.91
2022-07-29T20:56:25.795Z,101214.41
2022-07-29T20:58:27.806Z,101211.41
2022-07-29T21:00:29.937Z,101217.84
2022-07-29T21:02:32.132Z,101214.22
2022-07-29T21:04:34.276Z,101218.53
2022-07-29T21:06:36.464Z,101218.25
2022-07-29T21:08:39.178Z,101214.25
2022-07-29T21:10:41.360Z,101209.38
2022-07-29T21:12:43.351Z,101217.81
2022-07-29T21:14:48.158Z,101213.63
2022-07-29T21:16:50.412Z,101216.28
2022-07-29T21:18:53.188Z,101218.97
2022-07-29T21:20:55.435Z,101212.13
2022-07-29T21:22:58.015Z,101209.66
2022-07-29T21:25:00.182Z,101213.66
2022-07-29T21:27:21.919Z,101213.53
2022-07-29T21:29:24.070Z,101205.72
2022-07-29T21:31:27.113Z,101201.88
2022-07-29T21:33:30.063Z,101199.47
2022-07-29T21:36:06.939Z,101211.09
2022-07-29T21:37:54.128Z,101210.28
2022-07-29T21:39:56.188Z,101207.78
2022-07-29T21:41:58.173Z,101201.97
2022-07-29T21:44:00.172Z,101201.09
2022-07-29T21:46:03.687Z,101200.59
2022-07-29T21:48:06.418Z,101205.31
2022-07-29T21:50:08.467Z,101206.06
2022-07-29T21:52:10.568Z,101200.41
2022-07-29T21:54:13.631Z,101197.13
2022-07-29T21:56:16.001Z,101198.97
2022-07-29T21:58:21.336Z,101197.34
2022-07-29T22:00:25.618Z,101200.88
2022-07-29T22:02:27.647Z,101202.53
2022-07-29T22:04:30.193Z,101197.19
2022-07-29T22:06:34.568Z,101203.66
2022-07-29T22:08:36.584Z,101196.28
2022-07-29T22:10:38.614Z,101203.06
2022-07-29T22:12:40.627Z,101196.06
2022-07-29T22:14:42.640Z,101189.94
2022-07-29T22:16:47.783Z,101192.38
2022-07-29T22:18:49.828Z,101183.72
2022-07-29T22:20:51.832Z,101184.44
2022-07-29T22:22:53.986Z,101188.88
2022-07-29T22:24:55.970Z,101192.41
2022-07-29T22:26:58.245Z,101187.19
2022-07-29T22:29:00.600Z,101195.28
2022-07-29T22:31:02.756Z,101197.09
2022-07-29T22:33:04.784Z,101203.09
2022-07-29T22:35:07.674Z,101198.56
2022-07-29T22:37:09.726Z,101190.72
2022-07-29T22:39:11.799Z,101186.66
2022-07-29T22:41:17.662Z,101192.44
2022-07-29T22:43:19.930Z,101190.88
2022-07-29T22:45:21.999Z,101186.91
2022-07-29T22:47:46.578Z,101185.09
2022-07-29T22:49:46.035Z,101191.00
2022-07-29T22:51:48.031Z,101185.06
2022-07-29T22:53:50.090Z,101189.47
2022-07-29T22:55:52.107Z,101185.50
2022-07-29T22:57:54.164Z,101200.22
2022-07-29T22:59:56.132Z,101194.31
2022-07-29T23:01:58.220Z,101195.50
2022-07-29T23:04:00.350Z,101197.84
2022-07-29T23:06:02.393Z,101188.09
2022-07-29T23:08:04.747Z,101189.63
2022-07-29T23:10:07.426Z,101181.31
2022-07-29T23:12:09.644Z,101192.06
2022-07-29T23:14:11.698Z,101185.91
2022-07-29T23:16:13.741Z,101194.41
2022-07-29T23:18:15.807Z,101185.91
2022-07-29T23:20:17.924Z,101180.84
2022-07-29T23:22:19.905Z,101184.84
2022-07-29T23:24:21.882Z,101180.69
2022-07-29T23:26:23.862Z,101174.91
2022-07-29T23:28:25.843Z,101174.91
2022-07-29T23:30:28.202Z,101170.13
2022-07-29T23:32:30.258Z,101173.75
2022-07-29T23:34:32.281Z,101164.53
2022-07-29T23:36:34.337Z,101168.94
2022-07-29T23:38:40.979Z,101169.31
2022-07-29T23:40:43.086Z,101166.06
2022-07-29T23:42:45.270Z,101161.28
2022-07-29T23:44:47.257Z,101158.47
2022-07-29T23:46:49.265Z,101154.41